createdAt,value
2016-05-06T00:00:20.150Z,967.72
2016-05-06T00:01:20.152Z,967.69
2016-05-06T00:02:20.156Z,967.69
2016-05-06T00:03:20.159Z,967.71
2016-05-06T00:04:20.145Z,967.68
2016-05-06T00:05:20.163Z,967.72
2016-05-06T00:06:20.150Z,967.68
2016-05-06T00:07:20.168Z,967.69
2016-05-06T00:08:20.156Z,967.71
2016-05-06T00:09:20.158Z,967.69
2016-05-06T00:10:20.161Z,967.74
2016-05-06T00:11:20.163Z,967.74
2016-05-06T00:12:21.839Z,967.72
2016-05-06T00:13:20.154Z,967.73
2016-05-06T00:14:20.157Z,967.7
2016-05-06T00:15:20.159Z,967.75
2016-05-06T00:16:20.162Z,967.73
2016-05-06T00:17:20.148Z,967.72
2016-05-06T00:18:20.152Z,967.73
2016-05-06T00:19:20.170Z,967.73
2016-05-06T00:20:20.156Z,967.72
2016-05-06T00:21:20.153Z,967.7
2016-05-06T00:22:20.155Z,967.69
2016-05-06T00:23:20.158Z,967.69
2016-05-06T00:24:20.160Z,967.71
2016-05-06T00:25:20.179Z,967.68
2016-05-06T00:26:20.166Z,967.68
2016-05-06T00:27:20.169Z,967.71
2016-05-06T00:28:20.156Z,967.7
2016-05-06T00:29:20.159Z,967.69
2016-05-06T00:30:20.162Z,967.71
2016-05-06T00:31:20.164Z,967.68
2016-05-06T00:32:20.151Z,967.65
2016-05-06T00:33:20.154Z,967.63
2016-05-06T00:34:20.156Z,967.63
2016-05-06T00:35:20.160Z,967.64
2016-05-06T00:36:20.162Z,967.63
2016-05-06T00:37:20.148Z,967.64
2016-05-06T00:38:20.151Z,967.66
2016-05-06T00:39:20.154Z,967.62
2016-05-06T00:40:20.313Z,967.65
2016-05-06T00:41:20.175Z,967.68
2016-05-06T00:42:20.162Z,967.68
2016-05-06T00:43:20.150Z,967.65
2016-05-06T00:44:20.152Z,967.59
2016-05-06T00:45:20.155Z,967.63
2016-05-06T00:46:20.157Z,967.64
2016-05-06T00:47:20.160Z,967.63
2016-05-06T00:48:20.163Z,967.59
2016-05-06T00:49:20.150Z,967.57
2016-05-06T00:50:20.152Z,967.61
2016-05-06T00:51:20.155Z,967.6
2016-05-06T00:52:20.158Z,967.58
2016-05-06T00:53:20.161Z,967.57
2016-05-06T00:54:20.163Z,967.54
2016-05-06T00:55:20.416Z,967.53
2016-05-06T00:56:20.169Z,967.56
2016-05-06T00:57:20.156Z,967.56
2016-05-06T00:58:20.156Z,967.51
2016-05-06T00:59:20.159Z,967.53
2016-05-06T01:00:20.161Z,967.53
2016-05-06T01:01:20.149Z,967.54
2016-05-06T01:02:20.151Z,967.53
2016-05-06T01:03:20.154Z,967.51
2016-05-06T01:04:20.156Z,967.53
2016-05-06T01:05:20.159Z,967.5
2016-05-06T01:06:20.146Z,967.55
2016-05-06T01:07:20.149Z,967.52
2016-05-06T01:08:20.151Z,967.56
2016-05-06T01:09:20.154Z,967.49
2016-05-06T01:10:20.157Z,967.53
2016-05-06T01:11:20.159Z,967.54
2016-05-06T01:12:20.147Z,967.5
2016-05-06T01:13:20.149Z,967.5
2016-05-06T01:14:20.153Z,967.5
2016-05-06T01:15:20.155Z,967.49
2016-05-06T01:16:20.158Z,967.52
2016-05-06T01:17:20.144Z,967.5
2016-05-06T01:18:20.147Z,967.5
2016-05-06T01:19:20.150Z,967.54
2016-05-06T01:20:20.153Z,967.48
2016-05-06T01:21:20.155Z,967.5
2016-05-06T01:22:20.141Z,967.49
2016-05-06T01:23:20.145Z,967.51
2016-05-06T01:24:20.147Z,967.51
2016-05-06T01:25:20.150Z,967.48
2016-05-06T01:26:20.152Z,967.49
2016-05-06T01:27:20.156Z,967.48
2016-05-06T01:28:20.143Z,967.46
2016-05-06T01:29:20.146Z,967.48
2016-05-06T01:30:20.148Z,967.5
2016-05-06T01:31:20.151Z,967.52
2016-05-06T01:32:20.154Z,967.48
2016-05-06T01:33:20.140Z,967.54
2016-05-06T01:34:20.143Z,967.5
2016-05-06T01:35:20.145Z,967.48
2016-05-06T01:36:20.149Z,967.48
2016-05-06T01:37:20.151Z,967.46
2016-05-06T01:38:20.153Z,967.46
2016-05-06T01:39:20.141Z,967.46
2016-05-06T01:40:20.145Z,967.47
2016-05-06T01:41:20.147Z,967.4
2016-05-06T01:42:20.149Z,967.43
2016-05-06T01:43:20.153Z,967.43
2016-05-06T01:44:20.139Z,967.41
2016-05-06T01:45:20.142Z,967.37
2016-05-06T01:46:20.144Z,967.41
2016-05-06T01:47:20.147Z,967.39
2016-05-06T01:48:20.150Z,967.4
2016-05-06T01:49:20.153Z,967.45
2016-05-06T01:50:20.139Z,967.4
2016-05-06T01:51:20.141Z,967.44
2016-05-06T01:52:20.145Z,967.43
2016-05-06T01:53:20.148Z,967.42
2016-05-06T01:54:20.150Z,967.43
2016-05-06T01:55:20.152Z,967.41
2016-05-06T01:56:20.141Z,967.42
2016-05-06T01:57:20.143Z,967.4
2016-05-06T01:58:20.146Z,967.42
2016-05-06T01:59:20.148Z,967.41
2016-05-06T02:00:20.151Z,967.37
2016-05-06T02:01:20.138Z,967.36
2016-05-06T02:02:20.140Z,967.34
2016-05-06T02:03:20.143Z,967.38
2016-05-06T02:04:20.145Z,967.34
2016-05-06T02:05:20.149Z,967.34
2016-05-06T02:06:20.135Z,967.32
2016-05-06T02:07:20.138Z,967.33
2016-05-06T02:08:20.140Z,967.34
2016-05-06T02:09:20.143Z,967.34
2016-05-06T02:10:20.506Z,967.36
2016-05-06T02:11:20.133Z,967.36
2016-05-06T02:12:20.136Z,967.33
2016-05-06T02:13:20.139Z,967.35
2016-05-06T02:14:20.142Z,967.37
2016-05-06T02:15:20.144Z,967.39
2016-05-06T02:16:20.147Z,967.36
2016-05-06T02:17:20.134Z,967.37
2016-05-06T02:18:20.137Z,967.39
2016-05-06T02:19:20.139Z,967.38
2016-05-06T02:20:20.142Z,967.42
2016-05-06T02:21:20.130Z,967.46
2016-05-06T02:22:20.147Z,967.44
2016-05-06T02:23:20.135Z,967.46
2016-05-06T02:24:20.140Z,967.46
2016-05-06T02:25:20.128Z,967.43
2016-05-06T02:26:20.131Z,967.43
2016-05-06T02:27:20.134Z,967.47
2016-05-06T02:28:20.136Z,967.49
2016-05-06T02:29:20.139Z,967.5
2016-05-06T02:30:20.141Z,967.49
2016-05-06T02:31:20.145Z,967.51
2016-05-06T02:32:20.131Z,967.5
2016-05-06T02:33:20.133Z,967.49
2016-05-06T02:34:20.136Z,967.52
2016-05-06T02:35:20.124Z,967.52
2016-05-06T02:36:20.127Z,967.51
2016-05-06T02:37:20.129Z,967.5
2016-05-06T02:38:20.133Z,967.48
2016-05-06T02:39:20.135Z,967.49
2016-05-06T02:40:20.138Z,967.5
2016-05-06T02:41:20.124Z,967.49
2016-05-06T02:42:20.126Z,967.52
2016-05-06T02:43:20.129Z,967.49
2016-05-06T02:44:20.133Z,967.48
2016-05-06T02:45:20.119Z,967.44
2016-05-06T02:46:20.121Z,967.44
2016-05-06T02:47:20.125Z,967.41
2016-05-06T02:48:20.127Z,967.37
2016-05-06T02:49:20.129Z,967.39
2016-05-06T02:50:20.132Z,967.38
2016-05-06T02:51:20.121Z,967.38
2016-05-06T02:52:20.123Z,967.42
2016-05-06T02:53:20.125Z,967.43
2016-05-06T02:54:20.129Z,967.44
2016-05-06T02:55:20.130Z,967.41
2016-05-06T02:56:20.134Z,967.41
2016-05-06T02:57:20.120Z,967.39
2016-05-06T02:58:20.123Z,967.39
2016-05-06T02:59:20.126Z,967.38
2016-05-06T03:00:20.113Z,967.39
2016-05-06T03:01:20.131Z,967.4
2016-05-06T03:02:20.117Z,967.42
2016-05-06T03:03:20.121Z,967.41
2016-05-06T03:04:20.123Z,967.41
2016-05-06T03:05:20.126Z,967.39
2016-05-06T03:06:20.113Z,967.37
2016-05-06T03:07:20.116Z,967.4
2016-05-06T03:08:20.119Z,967.39
2016-05-06T03:09:20.121Z,967.38
2016-05-06T03:10:20.108Z,967.37
2016-05-06T03:11:20.111Z,967.39
2016-05-06T03:12:20.114Z,967.42
2016-05-06T03:13:20.116Z,967.4
2016-05-06T03:14:20.119Z,967.46
2016-05-06T03:15:20.106Z,967.43
2016-05-06T03:16:20.110Z,967.39
2016-05-06T03:17:20.112Z,967.44
2016-05-06T03:18:20.115Z,967.37
2016-05-06T03:19:20.117Z,967.39
2016-05-06T03:20:20.120Z,967.44
2016-05-06T03:21:20.107Z,967.45
2016-05-06T03:22:20.109Z,967.45
2016-05-06T03:23:20.112Z,967.48
2016-05-06T03:24:20.115Z,967.47
2016-05-06T03:25:20.102Z,967.46
2016-05-06T03:26:20.104Z,967.47
2016-05-06T03:27:20.107Z,967.49
2016-05-06T03:28:20.110Z,967.53
2016-05-06T03:29:20.112Z,967.52
2016-05-06T03:30:20.115Z,967.55
2016-05-06T03:31:20.103Z,967.55
2016-05-06T03:32:20.105Z,967.54
2016-05-06T03:33:20.108Z,967.55
2016-05-06T03:34:20.111Z,967.56
2016-05-06T03:35:20.113Z,967.55
2016-05-06T03:36:20.100Z,967.56
2016-05-06T03:37:20.103Z,967.57
2016-05-06T03:38:20.106Z,967.54
2016-05-06T03:39:20.108Z,967.52
2016-05-06T03:40:20.095Z,967.49
2016-05-06T03:41:21.358Z,967.53
2016-05-06T03:42:20.109Z,967.51
2016-05-06T03:43:20.084Z,967.51
2016-05-06T03:44:20.102Z,967.5
2016-05-06T03:45:20.088Z,967.5
2016-05-06T03:46:20.091Z,967.45
2016-05-06T03:47:20.094Z,967.46
2016-05-06T03:48:20.097Z,967.5
2016-05-06T03:49:20.083Z,967.49
2016-05-06T03:50:20.086Z,967.48
2016-05-06T03:51:20.088Z,967.45
2016-05-06T03:52:20.091Z,967.49
2016-05-06T03:53:20.079Z,967.5
2016-05-06T03:54:20.081Z,967.47
2016-05-06T03:55:20.085Z,967.46
2016-05-06T03:56:20.087Z,967.47
2016-05-06T03:57:20.074Z,967.49
2016-05-06T03:58:20.076Z,967.5
2016-05-06T03:59:20.079Z,967.52
2016-05-06T04:00:20.082Z,967.53
2016-05-06T04:01:20.069Z,967.49
2016-05-06T04:02:20.071Z,967.5
2016-05-06T04:03:20.073Z,967.52
2016-05-06T04:04:20.077Z,967.54
2016-05-06T04:05:20.079Z,967.55
2016-05-06T04:06:20.066Z,967.56
2016-05-06T04:07:20.085Z,967.56
2016-05-06T04:08:20.073Z,967.58
2016-05-06T04:09:20.075Z,967.58
2016-05-06T04:10:20.077Z,967.55
2016-05-06T04:11:20.081Z,967.6
2016-05-06T04:12:20.066Z,967.64
2016-05-06T04:13:20.101Z,967.61
2016-05-06T04:14:20.072Z,967.64
2016-05-06T04:15:20.075Z,967.63
2016-05-06T04:16:20.063Z,967.63
2016-05-06T04:17:20.080Z,967.65
2016-05-06T04:18:20.083Z,967.69
2016-05-06T04:19:20.070Z,967.68
2016-05-06T04:20:20.074Z,967.72
2016-05-06T04:21:20.060Z,967.74
2016-05-06T04:22:20.063Z,967.73
2016-05-06T04:23:20.065Z,967.64
2016-05-06T04:24:20.068Z,967.61
2016-05-06T04:25:20.071Z,967.62
2016-05-06T04:26:20.057Z,967.59
2016-05-06T04:27:20.060Z,967.61
2016-05-06T04:28:20.063Z,967.63
2016-05-06T04:29:20.066Z,967.6
2016-05-06T04:30:20.068Z,967.66
2016-05-06T04:31:20.071Z,967.66
2016-05-06T04:32:20.074Z,967.67
2016-05-06T04:33:20.062Z,967.7
2016-05-06T04:34:20.064Z,967.71
2016-05-06T04:35:20.067Z,967.68
2016-05-06T04:36:20.070Z,967.69
2016-05-06T04:37:20.056Z,967.74
2016-05-06T04:38:20.059Z,967.65
2016-05-06T04:39:20.061Z,967.67
2016-05-06T04:40:20.064Z,967.66
2016-05-06T04:41:20.051Z,967.67
2016-05-06T04:42:20.070Z,967.69
2016-05-06T04:43:20.056Z,967.73
2016-05-06T04:44:20.059Z,967.73
2016-05-06T04:45:20.062Z,967.76
2016-05-06T04:46:20.064Z,967.79
2016-05-06T04:47:20.067Z,967.82
2016-05-06T04:48:20.070Z,967.81
2016-05-06T04:49:20.073Z,967.81
2016-05-06T04:50:20.060Z,967.8
2016-05-06T04:51:20.063Z,967.78
2016-05-06T04:52:20.065Z,967.79
2016-05-06T04:53:20.068Z,967.82
2016-05-06T04:54:20.071Z,967.84
2016-05-06T04:55:20.074Z,967.83
2016-05-06T04:56:20.060Z,967.86
2016-05-06T04:57:20.063Z,967.93
2016-05-06T04:58:20.082Z,967.9
2016-05-06T04:59:20.068Z,967.92
2016-05-06T05:00:20.071Z,967.96
2016-05-06T05:01:20.073Z,967.93
2016-05-06T05:02:20.077Z,967.99
2016-05-06T05:03:20.079Z,967.94
2016-05-06T05:04:20.081Z,967.99
2016-05-06T05:05:20.085Z,968.03
2016-05-06T05:06:20.087Z,968.02
2016-05-06T05:07:20.090Z,968
2016-05-06T05:08:20.092Z,968.03
2016-05-06T05:09:20.096Z,968
2016-05-06T05:10:20.098Z,968
2016-05-06T05:11:20.124Z,968
2016-05-06T05:12:20.173Z,967.97
2016-05-06T05:13:20.223Z,968
2016-05-06T05:14:20.273Z,968
2016-05-06T05:15:20.323Z,967.98
2016-05-06T05:16:20.358Z,968
2016-05-06T05:17:20.378Z,967.97
2016-05-06T05:18:20.398Z,967.99
2016-05-06T05:19:20.417Z,968
2016-05-06T05:20:20.436Z,968.02
2016-05-06T05:21:20.451Z,967.96
2016-05-06T05:22:20.460Z,968.01
2016-05-06T05:23:20.469Z,968.01
2016-05-06T05:24:20.477Z,968.02
2016-05-06T05:25:20.487Z,968.04
2016-05-06T05:26:20.493Z,968.06
2016-05-06T05:27:20.499Z,968.05
2016-05-06T05:28:20.503Z,967.99
2016-05-06T05:29:20.509Z,967.98
2016-05-06T05:30:20.513Z,967.99
2016-05-06T05:31:20.517Z,968.02
2016-05-06T05:32:20.521Z,968.02
2016-05-06T05:33:20.524Z,968.02
2016-05-06T05:34:20.528Z,968
2016-05-06T05:35:20.531Z,968
2016-05-06T05:36:20.551Z,968.03
2016-05-06T05:37:20.553Z,968.05
2016-05-06T05:38:20.557Z,968.09
2016-05-06T05:39:20.560Z,968.06
2016-05-06T05:40:20.578Z,968.12
2016-05-06T05:41:20.566Z,968.14
2016-05-06T05:42:20.569Z,968.11
2016-05-06T05:43:20.571Z,968.15
2016-05-06T05:44:20.574Z,968.13
2016-05-06T05:45:20.577Z,968.13
2016-05-06T05:46:20.594Z,968.14
2016-05-06T05:47:20.597Z,968.09
2016-05-06T05:48:20.600Z,968.11
2016-05-06T05:49:20.603Z,968.09
2016-05-06T05:50:20.605Z,968.07
2016-05-06T05:51:20.608Z,968.09
2016-05-06T05:52:20.626Z,968.08
2016-05-06T05:53:20.629Z,968.09
2016-05-06T05:54:20.632Z,968.08
2016-05-06T05:55:20.635Z,968.1
2016-05-06T05:56:20.653Z,968.15
2016-05-06T05:57:20.656Z,968.15
2016-05-06T05:58:20.659Z,968.15
2016-05-06T05:59:20.661Z,968.12
2016-05-06T06:00:20.664Z,968.12
2016-05-06T06:01:20.682Z,968.12
2016-05-06T06:02:20.684Z,968.13
2016-05-06T06:03:20.687Z,968.12
2016-05-06T06:04:20.753Z,968.09
2016-05-06T06:05:20.692Z,968.15
2016-05-06T06:06:20.711Z,968.18
2016-05-06T06:07:20.714Z,968.15
2016-05-06T06:08:20.717Z,968.18
2016-05-06T06:09:20.719Z,968.15
2016-05-06T06:10:20.722Z,968.18
2016-05-06T06:11:20.724Z,968.16
2016-05-06T06:12:20.743Z,968.1
2016-05-06T06:13:20.746Z,968.12
2016-05-06T06:14:20.764Z,968.1
2016-05-06T06:15:20.767Z,968.08
2016-05-06T06:16:20.769Z,968.08
2016-05-06T06:17:20.771Z,968.08
2016-05-06T06:18:20.775Z,968.11
2016-05-06T06:19:20.793Z,968.12
2016-05-06T06:20:20.796Z,968.11
2016-05-06T06:21:20.799Z,968.11
2016-05-06T06:22:20.816Z,968.16
2016-05-06T06:23:20.819Z,968.17
2016-05-06T06:24:20.821Z,968.16
2016-05-06T06:25:20.825Z,968.13
2016-05-06T06:26:20.843Z,968.11
2016-05-06T06:27:20.846Z,968.06
2016-05-06T06:28:20.864Z,968.08
2016-05-06T06:29:20.867Z,968.03
2016-05-06T06:30:20.869Z,968.04
2016-05-06T06:31:20.873Z,968.05
2016-05-06T06:32:20.890Z,968.01
2016-05-06T06:33:20.892Z,968.01
2016-05-06T06:34:20.896Z,968.02
2016-05-06T06:35:20.914Z,968
2016-05-06T06:36:20.916Z,968
2016-05-06T06:37:20.920Z,968.01
2016-05-06T06:38:20.938Z,967.96
2016-05-06T06:39:20.941Z,967.98
2016-05-06T06:40:20.944Z,968.01
2016-05-06T06:41:21.477Z,967.99
2016-05-06T06:42:20.964Z,968.03
2016-05-06T06:43:20.966Z,967.98
2016-05-06T06:44:20.985Z,967.97
2016-05-06T06:45:20.988Z,968
2016-05-06T06:46:21.006Z,967.97
2016-05-06T06:47:21.009Z,967.96
2016-05-06T06:48:21.027Z,967.98
2016-05-06T06:49:21.014Z,967.93
2016-05-06T06:50:21.032Z,967.96
2016-05-06T06:51:21.035Z,967.97
2016-05-06T06:52:21.054Z,967.99
2016-05-06T06:53:21.057Z,967.98
2016-05-06T06:54:21.059Z,968
2016-05-06T06:55:21.077Z,968.01
2016-05-06T06:56:21.079Z,967.98
2016-05-06T06:57:21.098Z,967.91
2016-05-06T06:58:21.101Z,967.89
2016-05-06T06:59:21.103Z,967.9
2016-05-06T07:00:21.123Z,967.91
2016-05-06T07:01:21.125Z,967.88
2016-05-06T07:02:21.143Z,967.95
2016-05-06T07:03:21.162Z,967.87
2016-05-06T07:04:21.164Z,967.89
2016-05-06T07:05:21.166Z,967.9
2016-05-06T07:06:21.169Z,967.87
2016-05-06T07:07:21.187Z,967.93
2016-05-06T07:08:21.190Z,967.9
2016-05-06T07:09:21.192Z,967.93
2016-05-06T07:10:21.212Z,967.93
2016-05-06T07:11:21.214Z,967.94
2016-05-06T07:12:21.216Z,967.95
2016-05-06T07:13:21.235Z,967.97
2016-05-06T07:14:21.238Z,967.97
2016-05-06T07:15:21.255Z,968.01
2016-05-06T07:16:21.274Z,967.98
2016-05-06T07:17:21.277Z,967.95
2016-05-06T07:18:21.280Z,967.96
2016-05-06T07:19:21.299Z,967.93
2016-05-06T07:20:21.301Z,967.93
2016-05-06T07:21:21.304Z,967.96
2016-05-06T07:22:21.321Z,967.93
2016-05-06T07:23:21.329Z,967.92
2016-05-06T07:24:21.348Z,967.96
2016-05-06T07:25:21.350Z,967.92
2016-05-06T07:26:21.853Z,967.97
2016-05-06T07:27:21.371Z,967.92
2016-05-06T07:28:21.374Z,967.93
2016-05-06T07:29:21.392Z,967.9
2016-05-06T07:30:21.395Z,967.89
2016-05-06T07:31:21.414Z,967.86
2016-05-06T07:32:21.417Z,967.85
2016-05-06T07:33:21.435Z,967.84
2016-05-06T07:34:21.437Z,967.85
2016-05-06T07:35:21.455Z,967.79
2016-05-06T07:36:21.458Z,967.81
2016-05-06T07:37:21.461Z,967.83
2016-05-06T07:38:21.478Z,967.84
2016-05-06T07:39:21.481Z,967.82
2016-05-06T07:40:21.500Z,967.82
2016-05-06T07:41:21.503Z,967.79
2016-05-06T07:42:21.521Z,967.79
2016-05-06T07:43:21.524Z,967.81
2016-05-06T07:44:21.527Z,967.77
2016-05-06T07:45:21.544Z,967.78
2016-05-06T07:46:21.547Z,967.79
2016-05-06T07:47:21.566Z,967.84
2016-05-06T07:48:21.568Z,967.82
2016-05-06T07:49:21.588Z,967.82
2016-05-06T07:50:21.590Z,967.88
2016-05-06T07:51:21.607Z,967.86
2016-05-06T07:52:21.626Z,967.83
2016-05-06T07:53:21.629Z,967.85
2016-05-06T07:54:21.631Z,967.84
2016-05-06T07:55:21.649Z,967.82
2016-05-06T07:56:21.652Z,967.8
2016-05-06T07:57:21.671Z,967.83
2016-05-06T07:58:21.673Z,967.81
2016-05-06T07:59:21.693Z,967.79
2016-05-06T08:00:21.695Z,967.81
2016-05-06T08:01:21.712Z,967.83
2016-05-06T08:02:21.715Z,967.85
2016-05-06T08:03:21.718Z,967.84
2016-05-06T08:04:21.736Z,967.82
2016-05-06T08:05:21.755Z,967.82
2016-05-06T08:06:21.758Z,967.87
2016-05-06T08:07:21.761Z,967.86
2016-05-06T08:08:21.778Z,967.86
2016-05-06T08:09:21.781Z,967.83
2016-05-06T08:10:21.800Z,967.89
2016-05-06T08:11:21.802Z,967.9
2016-05-06T08:12:21.820Z,967.93
2016-05-06T08:13:21.822Z,967.89
2016-05-06T08:14:21.842Z,967.9
2016-05-06T08:15:21.844Z,967.92
2016-05-06T08:16:21.847Z,967.91
2016-05-06T08:17:21.865Z,967.91
2016-05-06T08:18:21.868Z,967.93
2016-05-06T08:19:21.886Z,967.92
2016-05-06T08:20:21.888Z,967.87
2016-05-06T08:21:21.907Z,967.87
2016-05-06T08:22:21.910Z,967.92
2016-05-06T08:23:21.929Z,967.96
2016-05-06T08:24:21.931Z,967.93
2016-05-06T08:25:21.949Z,967.91
2016-05-06T08:26:21.952Z,967.93
2016-05-06T08:27:21.954Z,967.92
2016-05-06T08:28:21.973Z,967.86
2016-05-06T08:29:21.976Z,967.94
2016-05-06T08:30:21.993Z,967.91
2016-05-06T08:31:21.996Z,967.88
2016-05-06T08:32:22.015Z,967.83
2016-05-06T08:33:22.018Z,967.75
2016-05-06T08:34:22.036Z,967.69
2016-05-06T08:35:22.039Z,967.54
2016-05-06T08:36:22.042Z,967.46
2016-05-06T08:37:22.059Z,967.45
2016-05-06T08:38:22.062Z,967.5
2016-05-06T08:39:22.064Z,967.48
2016-05-06T08:40:22.084Z,967.47
2016-05-06T08:41:22.086Z,967.48
2016-05-06T08:42:22.105Z,967.44
2016-05-06T08:43:22.107Z,967.46
2016-05-06T08:44:22.110Z,967.45
2016-05-06T08:45:22.128Z,967.45
2016-05-06T08:46:22.130Z,967.42
2016-05-06T08:47:22.149Z,967.44
2016-05-06T08:48:22.152Z,967.46
2016-05-06T08:49:22.154Z,967.46
2016-05-06T08:50:22.172Z,967.47
2016-05-06T08:51:22.175Z,967.44
2016-05-06T08:52:22.193Z,967.43
2016-05-06T08:53:22.181Z,967.41
2016-05-06T08:54:22.199Z,967.44
2016-05-06T08:55:22.202Z,967.43
2016-05-06T08:56:22.220Z,967.39
2016-05-06T08:57:22.238Z,967.42
2016-05-06T08:58:22.226Z,967.41
2016-05-06T08:59:22.244Z,967.39
2016-05-06T09:00:22.246Z,967.36
2016-05-06T09:01:22.249Z,967.37
2016-05-06T09:02:22.267Z,967.32
2016-05-06T09:03:22.271Z,967.32
2016-05-06T09:04:22.273Z,967.31
2016-05-06T09:05:22.292Z,967.29
2016-05-06T09:06:22.294Z,967.3
2016-05-06T09:07:22.297Z,967.27
2016-05-06T09:08:22.299Z,967.24
2016-05-06T09:09:22.317Z,967.29
2016-05-06T09:10:22.320Z,967.29
2016-05-06T09:11:22.339Z,967.29
2016-05-06T09:12:22.342Z,967.29
2016-05-06T09:13:22.344Z,967.28
2016-05-06T09:14:22.362Z,967.25
2016-05-06T09:15:22.349Z,967.26
2016-05-06T09:16:22.367Z,967.23
2016-05-06T09:17:22.370Z,967.26
2016-05-06T09:18:22.373Z,967.23
2016-05-06T09:19:22.375Z,967.2
2016-05-06T09:20:22.394Z,967.15
2016-05-06T09:21:22.396Z,967.15
2016-05-06T09:22:22.400Z,967.18
2016-05-06T09:23:22.402Z,967.13
2016-05-06T09:24:22.420Z,967.13
2016-05-06T09:25:22.424Z,967.11
2016-05-06T09:26:22.427Z,967.05
2016-05-06T09:27:22.429Z,967.08
2016-05-06T09:28:22.447Z,967.06
2016-05-06T09:29:22.449Z,967.05
2016-05-06T09:30:22.452Z,967.05
2016-05-06T09:31:22.454Z,966.99
2016-05-06T09:32:22.457Z,967.08
2016-05-06T09:33:22.476Z,967.04
2016-05-06T09:34:22.463Z,967.05
2016-05-06T09:35:22.482Z,967.05
2016-05-06T09:36:22.484Z,967.01
2016-05-06T09:37:22.487Z,966.99
2016-05-06T09:38:22.506Z,966.97
2016-05-06T09:39:22.508Z,966.96
2016-05-06T09:40:22.511Z,966.92
2016-05-06T09:41:22.514Z,966.91
2016-05-06T09:42:22.516Z,966.92
2016-05-06T09:43:22.519Z,966.94
2016-05-06T09:44:22.522Z,966.98
2016-05-06T09:45:22.540Z,966.96
2016-05-06T09:46:22.542Z,966.99
2016-05-06T09:47:22.545Z,966.98
2016-05-06T09:48:22.548Z,966.95
2016-05-06T09:49:22.566Z,966.99
2016-05-06T09:50:22.568Z,966.96
2016-05-06T09:51:22.572Z,966.95
2016-05-06T09:52:22.574Z,966.95
2016-05-06T09:53:22.577Z,966.96
2016-05-06T09:54:22.580Z,966.93
2016-05-06T09:55:22.582Z,966.91
2016-05-06T09:56:22.600Z,966.91
2016-05-06T09:57:22.619Z,966.94
2016-05-06T09:58:22.605Z,966.93
2016-05-06T09:59:22.608Z,966.9
2016-05-06T10:00:22.610Z,966.88
2016-05-06T10:01:22.630Z,966.93
2016-05-06T10:02:22.632Z,966.86
2016-05-06T10:03:22.634Z,966.85
2016-05-06T10:04:22.638Z,966.86
2016-05-06T10:05:22.640Z,966.83
2016-05-06T10:06:22.642Z,966.87
2016-05-06T10:07:22.646Z,966.82
2016-05-06T10:08:22.648Z,966.83
2016-05-06T10:09:22.651Z,966.8
2016-05-06T10:10:22.654Z,966.81
2016-05-06T10:11:22.672Z,966.77
2016-05-06T10:12:22.675Z,966.78
2016-05-06T10:13:22.678Z,966.71
2016-05-06T10:14:22.681Z,966.69
2016-05-06T10:15:22.683Z,966.74
2016-05-06T10:16:22.686Z,966.71
2016-05-06T10:17:22.703Z,966.66
2016-05-06T10:18:22.691Z,966.62
2016-05-06T10:19:22.709Z,966.64
2016-05-06T10:20:22.711Z,966.62
2016-05-06T10:21:22.715Z,966.6
2016-05-06T10:22:22.717Z,966.62
2016-05-06T10:23:22.720Z,966.61
2016-05-06T10:24:22.722Z,966.61
2016-05-06T10:25:22.724Z,966.58
2016-05-06T10:26:22.728Z,966.6
2016-05-06T10:27:22.730Z,966.57
2016-05-06T10:28:22.749Z,966.57
2016-05-06T10:29:22.752Z,966.56
2016-05-06T10:30:22.754Z,966.55
2016-05-06T10:31:22.757Z,966.56
2016-05-06T10:32:22.760Z,966.5
2016-05-06T10:33:22.763Z,966.47
2016-05-06T10:34:22.765Z,966.45
2016-05-06T10:35:22.768Z,966.44
2016-05-06T10:36:22.786Z,966.39
2016-05-06T10:37:22.789Z,966.38
2016-05-06T10:38:22.792Z,966.38
2016-05-06T10:39:22.794Z,966.37
2016-05-06T10:40:22.797Z,966.35
2016-05-06T10:41:22.831Z,966.31
2016-05-06T10:42:22.803Z,966.29
2016-05-06T10:43:22.805Z,966.32
2016-05-06T10:44:22.808Z,966.3
2016-05-06T10:45:22.826Z,966.3
2016-05-06T10:46:22.813Z,966.27
2016-05-06T10:47:22.831Z,966.21
2016-05-06T10:48:22.834Z,966.2
2016-05-06T10:49:22.836Z,966.18
2016-05-06T10:50:22.840Z,966.15
2016-05-06T10:51:22.842Z,966.18
2016-05-06T10:52:22.844Z,966.15
2016-05-06T10:53:22.847Z,966.16
2016-05-06T10:54:22.866Z,966.12
2016-05-06T10:55:22.853Z,966.1
2016-05-06T10:56:22.903Z,966.09
2016-05-06T10:57:22.874Z,966.08
2016-05-06T10:58:22.877Z,966.06
2016-05-06T10:59:22.894Z,966.01
2016-05-06T11:00:22.883Z,966.03
2016-05-06T11:01:22.884Z,966
2016-05-06T11:02:22.888Z,966
2016-05-06T11:03:22.890Z,965.94
2016-05-06T11:04:22.893Z,965.91
2016-05-06T11:05:22.910Z,965.91
2016-05-06T11:06:22.898Z,965.89
2016-05-06T11:07:22.901Z,965.88
2016-05-06T11:08:22.904Z,965.87
2016-05-06T11:09:22.921Z,965.83
2016-05-06T11:10:22.924Z,965.85
2016-05-06T11:11:23.490Z,965.85
2016-05-06T11:12:22.930Z,965.81
2016-05-06T11:13:22.932Z,965.79
2016-05-06T11:14:22.935Z,965.8
2016-05-06T11:15:22.938Z,965.77
2016-05-06T11:16:22.940Z,965.72
2016-05-06T11:17:22.943Z,965.71
2016-05-06T11:18:22.946Z,965.7
2016-05-06T11:19:22.948Z,965.69
2016-05-06T11:20:22.951Z,965.66
2016-05-06T11:21:22.986Z,965.66
2016-05-06T11:22:22.973Z,965.66
2016-05-06T11:23:22.975Z,965.61
2016-05-06T11:24:22.977Z,965.66
2016-05-06T11:25:22.981Z,965.61
2016-05-06T11:26:22.999Z,965.6
2016-05-06T11:27:22.986Z,965.61
2016-05-06T11:28:22.989Z,965.57
2016-05-06T11:29:22.991Z,965.61
2016-05-06T11:30:22.994Z,965.57
2016-05-06T11:31:22.997Z,965.53
2016-05-06T11:32:23.030Z,965.54
2016-05-06T11:33:23.002Z,965.51
2016-05-06T11:34:23.021Z,965.51
2016-05-06T11:35:23.023Z,965.47
2016-05-06T11:36:23.027Z,965.42
2016-05-06T11:37:23.029Z,965.48
2016-05-06T11:38:23.031Z,965.48
2016-05-06T11:39:23.035Z,965.46
2016-05-06T11:40:23.037Z,965.44
2016-05-06T11:41:23.040Z,965.49
2016-05-06T11:42:23.042Z,965.42
2016-05-06T11:43:23.045Z,965.46
2016-05-06T11:44:23.048Z,965.46
2016-05-06T11:45:23.050Z,965.44
2016-05-06T11:46:23.053Z,965.42
2016-05-06T11:47:23.071Z,965.46
2016-05-06T11:48:23.058Z,965.43
2016-05-06T11:49:23.061Z,965.46
2016-05-06T11:50:23.079Z,965.44
2016-05-06T11:51:23.067Z,965.44
2016-05-06T11:52:23.084Z,965.46
2016-05-06T11:53:23.072Z,965.44
2016-05-06T11:54:23.090Z,965.42
2016-05-06T11:55:23.092Z,965.4
2016-05-06T11:56:23.095Z,965.35
2016-05-06T11:57:23.097Z,965.35
2016-05-06T11:58:23.101Z,965.36
2016-05-06T11:59:23.103Z,965.35
2016-05-06T12:00:23.105Z,965.36
2016-05-06T12:01:23.109Z,965.31
2016-05-06T12:02:23.111Z,965.35
2016-05-06T12:03:23.114Z,965.31
2016-05-06T12:04:23.116Z,965.28
2016-05-06T12:05:23.120Z,965.33
2016-05-06T12:06:23.122Z,965.29
2016-05-06T12:07:23.124Z,965.23
2016-05-06T12:08:23.144Z,965.22
2016-05-06T12:09:23.130Z,965.2
2016-05-06T12:10:23.149Z,965.19
2016-05-06T12:11:23.151Z,965.22
2016-05-06T12:12:23.154Z,965.22
2016-05-06T12:13:23.141Z,965.19
2016-05-06T12:14:23.159Z,965.2
2016-05-06T12:15:23.162Z,965.17
2016-05-06T12:16:23.164Z,965.14
2016-05-06T12:17:23.168Z,965.13
2016-05-06T12:18:23.170Z,965.09
2016-05-06T12:19:23.189Z,965.03
2016-05-06T12:20:23.176Z,965.04
2016-05-06T12:21:23.178Z,965.08
2016-05-06T12:22:23.181Z,964.99
2016-05-06T12:23:23.184Z,965
2016-05-06T12:24:23.186Z,964.96
2016-05-06T12:25:23.189Z,964.95
2016-05-06T12:26:23.192Z,964.94
2016-05-06T12:27:23.195Z,964.96
2016-05-06T12:28:23.197Z,964.94
2016-05-06T12:29:23.199Z,964.98
2016-05-06T12:30:23.203Z,965.01
2016-05-06T12:31:23.205Z,964.99
2016-05-06T12:32:23.224Z,964.96